ロサンゼルス の空港の天気 - METARとTAF

ロサンゼルス国際空港 ( KLAX / LAX ) - アメリカ カリフォルニア州ロサンゼルス
飛行場実況気象(Metar)
観測時間02/01 00:53 PST (02/01 08:53 UTC)
風向・風速静穏 0m/s
視程10km以上
天気現象
なし
気温10℃
湿度54%
気圧1019.5hPa
METARKLAX 010853Z 00000KT 10SM CLR 10/01 A3011 RMK AO2 SLP195 T01000011 50000 $
過去の天気等 Google飛行場航空写真 Wunderground天気予報

過去48時間のMETAR

飛行場予報(TAF)
発表時間: 2/01 01:00 PST (2/01 09:00 UTC)
予報対象時間: 1日1時 PST ~ 2日4時 PST
風向・風速不定 2m/s
視程10km以上
なし
1日5時 PST から
風向・風速東北東 2m/s
視程10km以上
なし
1日12時 PST から
風向・風速西 5m/s
視程10km以上
なし
1日19時 PST から
風向・風速不定 2m/s
視程10km以上
なし
KLAX 010900Z 0109/0212 VRB03KT P6SM SKC
FM011300 07004KT P6SM SKC
FM012000 26010KT P6SM SKC
FM020300 VRB03KT P6SM SKC